Airfield :
LOGIN :

Register | Disclaimer

   EN    FR    IT 

 










Legend :    VFR   Marginal VFR   IFR   Intensive IFR   Very Intensive IFR
Visi :
Ceiling :
>= 8 km
>= 3000ft
5 to 8 km
1000 to 3000 ft
1500m to 5 km
500 to 1000 ft
800 to 1500m
200 to 500 ft
< 800m
< 200 ft
Symbols :   Thunderstorms  Fog  Heavy snow  Heavy precipitations  Wind > 20 kt
SIGMETs :     Misc.  Thunderstorms  Icing  Turbulence  Mountain Waves  Volcanic Ashes






- Airport Elevation : 1197 ft
- IATA code : SPM


ETAD - Spangdahlem Ab

CURRENT METAR :
  • 070155Z 25007KT 8000 BR OVC008 02/M01 A3002 RMK AO2A CIG 006 RWY05 CIG 007 RWY24 SLP171 T00151006 $

EXPIRED METARs :
  • 070110Z 26006KT 9000 BR OVC007 02/M01 A3002 RMK AO2A SLP171 $
  • 070055Z 24005KT 9000 BR OVC008 01/M01 A3002 RMK AO2A CIG 007 RWY05 SLP173 T00141008 $
  • 070041Z 25005KT 9999 OVC009 01/M01 A3002 RMK AO2A CIG 008 RWY05 SLP173 $
  • 070011Z 25004KT 9999 BKN011 OVC015 01/M01 A3003 RMK AO2A CIG 010 RWY05 SLP176 $
  • 062356Z 24004KT 9999 SCT012 BKN017 OVC022 01/M01 A3003 RMK AO2A CIG 015V022 SLP176 $
  • 062340Z 26004KT 9999 BKN022 OVC060 01/M01 A3004 RMK AO2A CIG 022V055 BKN V SCT SLP180 $

TAF AMD TAF ETAD
Valid from the 07 at 02:00 until the 08 at 03:00 UTC


070200Z 0702/0803 27005KT 8000 BR BKN010 620505 QNH3004INS
TEMPO 0702/0706 5000 BR BKN007
BECMG 0710/0711 29009KT 9999 NSW BKN020 620208 QNH2993INS
BECMG 0718/0719 25007KT 8000 BR BKN010 620208 QNH2983INS TX04/0714Z TN00/0704Z



MET'MAP, your aeronautical weather chart ! - Copyright ORBIFLY December 2007 - Disclaimer

ORBIFLY MET'MAP TEAM :

Programming & Development : Alexandra Zaïnal
Original concept : Baudouin d'Aumeries
Technical & hardware support : Manuel Goepfert
Assistance : Marc-Olivier Méhu




SOURCES & CREDITS :

   NOAA